Time;durP1;ratioP1;P1;durP2;ratioP2;P2;SDS_P1;SDS_P2;PMS_P1;PMS_P2;Temp;Humidity;BMP_temperature;BMP_pressure;BME280_temperature;BME280_humidity;BME280_pressure;Samples;Min_cycle;Max_cycle;Signal;HPM_P1;HPM_P2
2023/05/30 00:00:35;;;;;;;9.77;2.20;;;15.70;87.10;;;;;;4983794;28;20214;-33
2023/05/30 00:03:05;;;;;;;9.15;2.53;;;15.70;87.00;;;;;;4983936;28;20341;-33
2023/05/30 00:05:33;;;;;;;8.10;2.42;;;15.70;87.10;;;;;;4988222;28;20676;-33
2023/05/30 00:08:06;;;;;;;10.38;2.00;;;15.60;86.90;;;;;;4987664;28;20206;-33
2023/05/30 00:10:35;;;;;;;8.30;2.22;;;15.60;87.00;;;;;;5003798;28;20324;-33
2023/05/30 00:13:05;;;;;;;8.45;2.72;;;15.60;87.10;;;;;;4986245;28;20354;-33
2023/05/30 00:15:32;;;;;;;9.30;2.40;;;15.50;86.70;;;;;;4986949;28;20668;-34
2023/05/30 00:18:00;;;;;;;7.70;2.45;;;15.40;88.20;;;;;;5001421;28;20201;-34
2023/05/30 00:20:30;;;;;;;8.75;2.45;;;15.40;87.00;;;;;;4988418;28;20288;-33
2023/05/30 00:23:00;;;;;;;7.00;2.08;;;15.30;87.20;;;;;;4998704;28;20213;-34
2023/05/30 00:25:35;;;;;;;8.48;2.50;;;15.30;87.10;;;;;;4991966;28;20225;-33
2023/05/30 00:28:02;;;;;;;6.18;2.03;;;15.30;88.00;;;;;;4985247;28;20221;-33
2023/05/30 00:30:31;;;;;;;9.10;2.47;;;15.30;87.10;;;;;;4986309;28;20272;-33
2023/05/30 00:32:58;;;;;;;10.05;2.65;;;15.20;88.50;;;;;;4987551;28;20207;-33
2023/05/30 00:35:30;;;;;;;8.45;2.30;;;15.10;87.70;;;;;;4987175;28;20211;-34
2023/05/30 00:37:57;;;;;;;7.10;2.13;;;15.10;87.90;;;;;;5005638;28;20229;-33
2023/05/30 00:40:30;;;;;;;9.18;2.08;;;15.00;87.10;;;;;;5003310;28;20217;-34
2023/05/30 00:42:59;;;;;;;8.70;2.45;;;14.90;88.10;;;;;;4985638;28;20202;-33
2023/05/30 00:45:29;;;;;;;9.57;2.58;;;14.90;87.20;;;;;;4987581;28;20218;-34
2023/05/30 00:47:57;;;;;;;9.07;2.58;;;14.90;87.30;;;;;;4985878;28;20218;-33
2023/05/30 00:50:30;;;;;;;10.45;2.63;;;14.90;87.80;;;;;;4994131;28;20209;-33
2023/05/30 00:53:09;;;;;;;9.45;2.83;;;14.90;87.40;;;;;;4984966;28;20213;-33
2023/05/30 00:55:39;;;;;;;10.77;2.55;;;14.90;87.40;;;;;;4987653;28;20284;-36
2023/05/30 00:58:10;;;;;;;9.98;2.38;;;14.80;87.50;;;;;;4987022;28;20234;-36
2023/05/30 01:00:41;;;;;;;9.15;2.40;;;14.80;87.40;;;;;;4995492;28;20247;-36
2023/05/30 01:03:09;;;;;;;8.75;2.55;;;14.80;88.20;;;;;;4991294;28;20287;-36
2023/05/30 01:05:36;;;;;;;9.18;2.40;;;14.70;87.40;;;;;;5000527;28;20209;-36
2023/05/30 01:08:07;;;;;;;12.88;2.67;;;14.70;87.50;;;;;;4992381;28;20651;-36
2023/05/30 01:10:36;;;;;;;10.15;2.40;;;14.70;87.90;;;;;;5003716;28;20197;-36
2023/05/30 01:13:23;;;;;;;10.40;2.63;;;14.70;87.80;;;;;;5005495;28;20209;-36
2023/05/30 01:15:57;;;;;;;6.82;1.92;;;14.70;87.90;;;;;;4991648;28;20210;-36
2023/05/30 01:18:37;;;;;;;8.10;2.25;;;14.70;87.70;;;;;;4997958;28;20202;-36
2023/05/30 01:21:10;;;;;;;9.15;2.30;;;14.70;87.70;;;;;;5002765;28;20793;-36
2023/05/30 01:24:00;;;;;;;9.32;2.33;;;14.70;87.70;;;;;;4979339;28;20778;-36
2023/05/30 01:26:38;;;;;;;9.00;2.30;;;14.60;88.00;;;;;;4985726;28;20206;-36
2023/05/30 01:29:09;;;;;;;8.80;2.90;;;14.60;88.80;;;;;;5000550;28;20759;-36
2023/05/30 01:31:40;;;;;;;8.05;2.33;;;14.60;88.00;;;;;;4998289;28;20210;-36
2023/05/30 01:34:07;;;;;;;8.18;2.63;;;14.60;88.00;;;;;;5003281;28;20210;-36
2023/05/30 01:36:35;;;;;;;6.45;1.92;;;14.50;88.00;;;;;;5001744;28;20217;-36
2023/05/30 01:39:05;;;;;;;7.53;2.10;;;14.50;87.80;;;;;;4995402;28;20329;-36
2023/05/30 01:41:51;;;;;;;7.43;1.90;;;14.50;88.80;;;;;;5004002;28;20229;-36
2023/05/30 01:44:30;;;;;;;7.38;2.30;;;14.50;88.20;;;;;;5004289;28;20602;-36
2023/05/30 01:47:10;;;;;;;8.35;2.08;;;14.40;87.70;;;;;;5004854;28;20729;-36
2023/05/30 01:50:01;;;;;;;6.10;2.03;;;14.40;88.00;;;;;;4987584;28;20280;-36
2023/05/30 01:52:32;;;;;;;10.33;2.30;;;14.40;88.40;;;;;;4996345;28;20549;-36
2023/05/30 01:55:09;;;;;;;10.67;2.27;;;14.30;88.30;;;;;;4989433;28;20767;-36
2023/05/30 01:57:50;;;;;;;7.80;2.50;;;14.30;88.00;;;;;;5005581;28;20265;-36
2023/05/30 02:00:20;;;;;;;6.17;1.93;;;14.30;88.30;;;;;;4988763;28;20747;-36
2023/05/30 02:02:48;;;;;;;9.43;2.10;;;14.30;88.10;;;;;;5001958;28;20747;-36
2023/05/30 02:05:17;;;;;;;6.50;2.10;;;14.30;88.00;;;;;;5003782;28;20214;-36
2023/05/30 02:07:44;;;;;;;12.93;3.27;;;14.30;88.00;;;;;;5004849;28;20332;-36
2023/05/30 02:10:16;;;;;;;7.13;2.50;;;14.30;88.20;;;;;;4988260;28;20260;-36
2023/05/30 02:12:44;;;;;;;11.70;3.07;;;14.20;88.00;;;;;;4990358;28;20317;-36
2023/05/30 02:15:11;;;;;;;10.60;2.20;;;14.20;88.90;;;;;;4985391;28;20950;-36
2023/05/30 02:17:41;;;;;;;6.70;2.40;;;14.20;88.70;;;;;;4986601;28;20211;-36
2023/05/30 02:20:09;;;;;;;10.60;2.70;;;14.10;89.60;;;;;;4985154;28;20572;-36
2023/05/30 02:22:36;;;;;;;7.95;2.40;;;14.00;88.60;;;;;;4986226;28;20222;-36
2023/05/30 02:25:04;;;;;;;11.80;2.38;;;14.00;89.50;;;;;;4992292;28;20214;-36
2023/05/30 02:27:33;;;;;;;8.70;2.83;;;13.90;90.00;;;;;;4986034;28;20218;-36
2023/05/30 02:30:02;;;;;;;8.30;2.42;;;13.90;89.80;;;;;;4983716;28;20203;-37
2023/05/30 02:32:30;;;;;;;8.90;2.67;;;13.90;89.40;;;;;;4985149;28;20213;-36
2023/05/30 02:34:57;;;;;;;9.50;3.10;;;13.80;89.20;;;;;;4984769;28;20241;-36
2023/05/30 02:37:27;;;;;;;10.18;2.85;;;13.80;90.20;;;;;;4985577;28;20656;-36
2023/05/30 02:39:54;;;;;;;5.60;2.53;;;13.70;90.00;;;;;;4995129;28;20693;-37
2023/05/30 02:42:24;;;;;;;11.50;2.95;;;13.60;90.20;;;;;;4997664;28;20505;-37
2023/05/30 02:44:51;;;;;;;8.83;2.67;;;13.60;90.40;;;;;;4982882;28;20595;-36
2023/05/30 02:47:21;;;;;;;9.53;2.30;;;13.60;90.00;;;;;;4984136;28;20209;-36
2023/05/30 02:49:50;;;;;;;10.65;2.30;;;13.50;90.10;;;;;;4983513;28;20676;-36
2023/05/30 02:52:21;;;;;;;7.43;2.80;;;13.50;90.00;;;;;;4985488;28;20840;-36
2023/05/30 02:54:48;;;;;;;11.17;2.60;;;13.50;90.00;;;;;;5000297;28;20202;-36
2023/05/30 02:57:15;;;;;;;12.55;3.10;;;13.50;90.10;;;;;;4987579;28;20606;-37
2023/05/30 02:59:43;;;;;;;8.77;2.80;;;13.50;90.10;;;;;;4983053;28;20203;-36
2023/05/30 03:02:12;;;;;;;9.57;2.60;;;13.30;90.50;;;;;;4985192;28;20276;-36
2023/05/30 03:04:46;;;;;;;9.90;2.58;;;13.30;90.40;;;;;;4993044;28;20231;-36
2023/05/30 03:07:17;;;;;;;10.77;2.45;;;13.30;90.20;;;;;;5005253;28;20284;-37
2023/05/30 03:09:45;;;;;;;12.98;2.72;;;13.30;90.30;;;;;;4998097;28;20220;-36
2023/05/30 03:12:12;;;;;;;11.57;2.72;;;13.30;90.60;;;;;;4987119;28;20252;-36
2023/05/30 03:14:40;;;;;;;10.88;2.70;;;13.20;90.70;;;;;;4989338;28;20220;-36
2023/05/30 03:17:08;;;;;;;9.32;2.95;;;13.20;90.50;;;;;;4979155;28;20529;-36
2023/05/30 03:19:37;;;;;;;11.73;2.90;;;13.20;90.70;;;;;;4995642;28;20703;-37
2023/05/30 03:22:05;;;;;;;10.52;2.60;;;13.10;90.70;;;;;;4982923;28;20222;-36
2023/05/30 03:24:33;;;;;;;11.00;2.40;;;13.10;90.60;;;;;;4982825;28;20217;-36
2023/05/30 03:27:03;;;;;;;9.65;3.03;;;13.10;91.10;;;;;;4984700;28;20282;-36
2023/05/30 03:29:33;;;;;;;9.95;3.13;;;13.00;90.60;;;;;;4985179;28;20214;-37
2023/05/30 03:32:03;;;;;;;11.07;3.10;;;13.10;90.60;;;;;;4991646;28;20655;-36
2023/05/30 03:34:33;;;;;;;14.50;3.05;;;13.00;91.40;;;;;;4986776;28;20211;-36
2023/05/30 03:37:08;;;;;;;16.43;3.00;;;13.00;91.10;;;;;;5000129;28;20267;-36
2023/05/30 03:39:35;;;;;;;11.63;3.00;;;12.90;91.30;;;;;;5002491;28;20256;-36
2023/05/30 03:42:02;;;;;;;10.60;2.67;;;12.90;91.10;;;;;;5002269;28;20217;-36
2023/05/30 03:44:29;;;;;;;10.88;2.60;;;12.90;91.00;;;;;;4991509;28;20217;-36
2023/05/30 03:46:57;;;;;;;12.20;2.63;;;12.90;91.00;;;;;;4989362;28;20556;-36
2023/05/30 03:49:26;;;;;;;8.97;2.70;;;12.90;91.50;;;;;;4998548;28;20206;-36
2023/05/30 03:51:53;;;;;;;11.33;3.07;;;12.80;91.40;;;;;;4998243;28;21063;-36
2023/05/30 03:54:20;;;;;;;9.40;2.80;;;12.80;91.50;;;;;;5001114;28;20692;-36
2023/05/30 03:56:48;;;;;;;12.43;2.80;;;12.70;91.60;;;;;;5001478;28;20315;-36
2023/05/30 03:59:17;;;;;;;13.33;3.10;;;12.70;91.70;;;;;;4985755;28;20220;-36
2023/05/30 04:01:45;;;;;;;9.37;2.53;;;12.70;91.90;;;;;;4986406;28;20280;-36
2023/05/30 04:04:16;;;;;;;11.50;2.67;;;12.70;91.40;;;;;;4984980;28;20218;-36
2023/05/30 04:06:45;;;;;;;12.83;3.20;;;12.70;91.70;;;;;;5000550;28;20698;-36
2023/05/30 04:09:13;;;;;;;14.00;3.07;;;12.80;91.60;;;;;;5002242;28;20224;-36
2023/05/30 04:11:44;;;;;;;16.20;3.73;;;12.70;91.90;;;;;;4988968;28;20222;-36
2023/05/30 04:14:14;;;;;;;10.25;2.83;;;12.70;92.40;;;;;;4983268;28;20206;-36
2023/05/30 04:16:41;;;;;;;9.70;3.10;;;12.70;92.30;;;;;;4984059;28;20584;-36
2023/05/30 04:19:13;;;;;;;14.93;3.50;;;12.70;91.90;;;;;;4990046;28;20214;-36
2023/05/30 04:21:45;;;;;;;10.43;2.90;;;12.60;92.60;;;;;;4989197;28;20716;-36
2023/05/30 04:24:14;;;;;;;10.97;2.67;;;12.60;92.70;;;;;;4973014;28;20443;-36
2023/05/30 04:26:45;;;;;;;9.90;3.23;;;12.60;92.20;;;;;;4984013;28;20207;-36
2023/05/30 04:29:14;;;;;;;12.80;3.20;;;12.70;92.00;;;;;;4983150;28;20214;-36
2023/05/30 04:31:44;;;;;;;15.17;3.40;;;12.70;92.70;;;;;;4987755;28;20255;-36
2023/05/30 04:34:17;;;;;;;17.05;3.58;;;12.70;92.50;;;;;;5000333;28;20292;-37
2023/05/30 04:36:51;;;;;;;10.23;2.70;;;12.70;92.70;;;;;;4988060;28;20233;-36
2023/05/30 04:39:23;;;;;;;14.93;3.47;;;12.70;92.40;;;;;;4984509;28;20261;-36
2023/05/30 04:41:55;;;;;;;9.23;3.13;;;12.80;92.40;;;;;;4995706;28;20221;-36
2023/05/30 04:44:25;;;;;;;12.90;3.10;;;12.70;92.90;;;;;;4987677;28;20240;-34
2023/05/30 04:47:00;;;;;;;14.40;3.50;;;12.70;92.70;;;;;;4995987;28;20209;-33
2023/05/30 04:49:27;;;;;;;12.87;3.47;;;12.70;93.00;;;;;;5001441;28;20266;-33
2023/05/30 04:51:55;;;;;;;12.97;3.47;;;12.70;92.70;;;;;;4987452;28;20209;-34
2023/05/30 04:54:22;;;;;;;9.60;3.30;;;12.70;93.20;;;;;;5001406;28;20214;-33
2023/05/30 04:56:51;;;;;;;15.07;3.63;;;12.70;92.90;;;;;;5000263;28;20238;-33
2023/05/30 04:59:19;;;;;;;15.53;3.17;;;12.70;93.90;;;;;;5000001;28;20202;-34
2023/05/30 05:01:48;;;;;;;13.33;3.37;;;12.70;93.60;;;;;;4995494;28;20273;-33
2023/05/30 05:04:18;;;;;;;24.03;3.80;;;12.70;92.90;;;;;;4986053;28;20222;-33
2023/05/30 05:06:52;;;;;;;13.13;4.07;;;12.70;94.50;;;;;;4995124;28;20220;-33
2023/05/30 05:09:22;;;;;;;11.03;3.50;;;12.70;93.60;;;;;;4983216;28;20704;-33
2023/05/30 05:11:49;;;;;;;18.42;4.45;;;12.80;93.30;;;;;;4997658;28;20202;-36
2023/05/30 05:14:17;;;;;;;16.83;3.35;;;12.70;94.40;;;;;;4991409;28;20221;-36
2023/05/30 05:16:49;;;;;;;18.60;3.87;;;12.80;93.50;;;;;;4987931;28;20265;-36
2023/05/30 05:19:20;;;;;;;14.55;4.32;;;12.80;93.70;;;;;;4998030;28;20209;-36
2023/05/30 05:21:49;;;;;;;11.00;3.10;;;12.90;93.80;;;;;;4985298;28;20217;-33
2023/05/30 05:24:22;;;;;;;15.20;4.10;;;13.00;93.60;;;;;;4985330;28;20780;-34
2023/05/30 05:26:51;;;;;;;15.17;4.27;;;13.00;94.30;;;;;;4986543;28;20202;-33
2023/05/30 05:29:21;;;;;;;14.20;3.43;;;13.00;94.10;;;;;;4987985;28;20210;-34
2023/05/30 05:31:49;;;;;;;13.57;3.87;;;13.00;93.80;;;;;;4984351;28;20648;-36
2023/05/30 05:34:18;;;;;;;17.23;4.13;;;13.10;94.10;;;;;;4984755;28;20216;-36
2023/05/30 05:36:46;;;;;;;13.20;3.93;;;13.10;93.70;;;;;;4985106;28;20703;-36
2023/05/30 05:39:15;;;;;;;14.33;4.17;;;13.10;93.60;;;;;;4997911;28;20221;-36
2023/05/30 05:41:42;;;;;;;13.80;3.73;;;13.20;93.70;;;;;;4994393;28;20861;-36
2023/05/30 05:44:12;;;;;;;17.60;4.30;;;13.30;93.70;;;;;;4996954;28;21002;-37
2023/05/30 05:46:41;;;;;;;13.30;3.27;;;13.30;93.80;;;;;;4998027;28;20389;-36
2023/05/30 05:49:11;;;;;;;14.57;3.60;;;13.40;94.00;;;;;;4989803;28;20205;-36
2023/05/30 05:51:38;;;;;;;12.10;4.07;;;13.40;94.10;;;;;;4998024;28;20203;-36
2023/05/30 05:54:07;;;;;;;10.63;4.03;;;13.50;93.60;;;;;;4984725;28;20579;-36
2023/05/30 05:56:36;;;;;;;12.40;4.40;;;13.40;94.70;;;;;;4984077;28;20206;-33
2023/05/30 05:59:03;;;;;;;14.63;4.33;;;13.40;94.40;;;;;;4975965;28;20206;-33
2023/05/30 06:01:32;;;;;;;19.07;4.23;;;13.40;94.50;;;;;;4992998;28;20217;-33
2023/05/30 06:04:10;;;;;;;14.77;4.40;;;13.50;94.50;;;;;;4991919;28;20759;-33
2023/05/30 06:06:39;;;;;;;15.47;4.53;;;13.50;94.90;;;;;;4984672;28;20575;-36
2023/05/30 06:09:06;;;;;;;13.73;4.13;;;13.50;94.20;;;;;;4998259;28;20214;-36
2023/05/30 06:11:36;;;;;;;15.40;4.47;;;13.50;94.30;;;;;;4997247;28;20255;-36
2023/05/30 06:14:06;;;;;;;16.13;4.73;;;13.60;94.80;;;;;;4999504;28;20217;-36
2023/05/30 06:16:33;;;;;;;12.33;3.83;;;13.50;94.80;;;;;;4993900;28;20219;-36
2023/05/30 06:19:02;;;;;;;12.13;4.07;;;13.60;94.40;;;;;;4994196;28;20252;-36
2023/05/30 06:21:30;;;;;;;14.97;3.73;;;13.70;94.20;;;;;;4997247;28;20212;-36
2023/05/30 06:24:00;;;;;;;17.40;3.97;;;13.70;94.50;;;;;;4983735;28;20230;-36
2023/05/30 06:26:32;;;;;;;11.63;3.80;;;13.70;94.80;;;;;;5001603;28;20217;-36
2023/05/30 06:29:02;;;;;;;16.90;4.60;;;13.70;94.80;;;;;;4992532;28;20676;-36
2023/05/30 06:31:35;;;;;;;13.10;3.93;;;13.90;95.10;;;;;;5001445;28;20198;-36
2023/05/30 06:34:05;;;;;;;11.30;3.80;;;14.00;94.40;;;;;;4992021;28;20198;-36
2023/05/30 06:36:32;;;;;;;13.65;4.35;;;14.00;94.20;;;;;;4995421;28;20602;-36
2023/05/30 06:39:06;;;;;;;14.17;4.50;;;14.10;94.30;;;;;;4996008;28;20556;-36
2023/05/30 06:41:36;;;;;;;14.13;4.50;;;14.10;94.60;;;;;;4994689;28;20206;-33
2023/05/30 06:44:03;;;;;;;15.68;5.35;;;14.20;94.50;;;;;;4984005;28;20226;-34
2023/05/30 06:46:35;;;;;;;19.20;5.15;;;14.20;94.80;;;;;;4991998;28;20202;-33
2023/05/30 06:49:05;;;;;;;16.20;4.73;;;14.10;94.80;;;;;;4988198;28;20233;-33
2023/05/30 06:51:32;;;;;;;17.07;4.67;;;14.10;94.70;;;;;;4998233;28;20202;-33
2023/05/30 06:54:01;;;;;;;17.63;5.20;;;14.10;94.80;;;;;;4993522;28;20704;-34
2023/05/30 06:56:29;;;;;;;13.88;4.78;;;14.20;94.80;;;;;;5000966;28;20237;-34
2023/05/30 06:58:57;;;;;;;20.38;4.40;;;14.30;94.60;;;;;;4996399;28;20553;-35
2023/05/30 07:01:24;;;;;;;16.13;4.28;;;14.40;94.20;;;;;;4993754;28;20894;-33
2023/05/30 07:03:52;;;;;;;13.83;4.30;;;14.50;94.40;;;;;;4983468;28;20544;-33
2023/05/30 07:06:21;;;;;;;16.10;4.13;;;14.60;94.50;;;;;;5001598;28;20863;-33
2023/05/30 07:08:53;;;;;;;14.10;4.50;;;14.70;94.30;;;;;;5003519;28;20205;-34
2023/05/30 07:11:20;;;;;;;11.95;3.88;;;14.70;94.60;;;;;;4995514;28;20210;-35
2023/05/30 07:13:49;;;;;;;10.60;3.75;;;14.70;94.40;;;;;;4978860;28;20260;-35
2023/05/30 07:16:19;;;;;;;12.20;3.90;;;14.80;94.10;;;;;;4985005;28;20241;-35
2023/05/30 07:18:47;;;;;;;10.35;4.18;;;14.90;94.10;;;;;;4982315;28;20708;-35
2023/05/30 07:21:31;;;;;;;13.60;4.57;;;14.90;94.10;;;;;;4982373;28;20682;-35
2023/05/30 07:23:58;;;;;;;11.33;4.20;;;15.00;94.20;;;;;;4990076;28;20279;-35
2023/05/30 07:26:26;;;;;;;15.10;4.28;;;14.90;94.20;;;;;;4984866;28;20708;-35
2023/05/30 07:28:57;;;;;;;12.10;4.15;;;14.90;94.30;;;;;;4985706;28;20255;-35
2023/05/30 07:31:24;;;;;;;13.25;3.67;;;14.90;94.20;;;;;;4998428;28;20212;-35
2023/05/30 07:33:54;;;;;;;11.53;3.93;;;15.00;94.10;;;;;;4986657;28;20210;-35
2023/05/30 07:36:23;;;;;;;14.63;4.27;;;15.10;94.10;;;;;;4994638;28;20627;-35
2023/05/30 07:38:53;;;;;;;14.33;4.10;;;15.10;94.10;;;;;;4984855;28;20206;-35
2023/05/30 07:41:22;;;;;;;14.80;5.17;;;15.20;94.00;;;;;;4983601;28;20297;-35
2023/05/30 07:43:49;;;;;;;10.65;4.28;;;15.20;94.20;;;;;;4990142;28;20738;-35
2023/05/30 07:46:20;;;;;;;14.82;5.13;;;15.20;94.50;;;;;;4982160;28;20198;-35
2023/05/30 07:48:49;;;;;;;13.18;4.40;;;15.20;94.10;;;;;;4979251;28;20198;-35
2023/05/30 07:51:24;;;;;;;16.00;4.53;;;15.10;94.00;;;;;;4992828;28;20691;-35
2023/05/30 07:53:51;;;;;;;11.20;4.25;;;15.10;94.10;;;;;;4987899;28;20206;-35
2023/05/30 07:56:21;;;;;;;16.10;4.40;;;15.10;94.00;;;;;;4988414;28;20220;-35
2023/05/30 07:58:48;;;;;;;17.63;4.95;;;15.10;94.20;;;;;;4979283;28;20241;-35
2023/05/30 08:01:20;;;;;;;15.45;4.53;;;15.10;94.20;;;;;;4983824;28;20213;-35
2023/05/30 08:03:49;;;;;;;15.80;4.70;;;15.10;94.10;;;;;;4994519;28;20602;-35
2023/05/30 08:06:20;;;;;;;12.82;4.63;;;15.20;93.90;;;;;;4986793;28;20205;-35
2023/05/30 08:08:47;;;;;;;9.60;3.88;;;15.20;94.30;;;;;;4987815;28;20230;-35
2023/05/30 08:11:15;;;;;;;13.38;5.47;;;15.10;94.00;;;;;;4987007;28;20288;-35
2023/05/30 08:13:47;;;;;;;9.93;4.10;;;15.20;94.30;;;;;;4967652;28;20221;-35
2023/05/30 08:16:23;;;;;;;16.45;4.90;;;15.20;94.00;;;;;;4974195;28;20675;-35
2023/05/30 08:18:51;;;;;;;14.30;5.00;;;15.20;94.00;;;;;;4988811;28;20579;-35
2023/05/30 08:21:18;;;;;;;10.07;4.43;;;15.20;94.00;;;;;;4993532;28;20202;-35
2023/05/30 08:23:48;;;;;;;16.48;4.65;;;15.20;93.90;;;;;;4997455;28;20236;-35
2023/05/30 08:26:18;;;;;;;15.52;4.60;;;15.20;93.70;;;;;;4993751;28;20702;-35
2023/05/30 08:28:51;;;;;;;18.25;5.25;;;15.30;93.80;;;;;;4996317;28;20723;-35
2023/05/30 08:31:23;;;;;;;13.45;5.00;;;15.30;93.90;;;;;;4990123;28;20216;-35
2023/05/30 08:33:55;;;;;;;14.63;4.88;;;15.20;93.90;;;;;;4982420;28;20225;-37
2023/05/30 08:36:25;;;;;;;12.95;4.55;;;15.20;93.80;;;;;;4995382;28;20412;-37
2023/05/30 08:38:54;;;;;;;16.40;5.28;;;15.30;93.70;;;;;;4990122;28;20724;-37
2023/05/30 08:41:40;;;;;;;13.82;4.90;;;15.30;93.70;;;;;;4998559;28;21071;-37
2023/05/30 08:44:10;;;;;;;9.40;4.72;;;15.30;93.70;;;;;;4987134;28;20237;-37
2023/05/30 08:46:42;;;;;;;13.90;5.20;;;15.40;93.90;;;;;;4998878;28;20286;-37
2023/05/30 08:49:17;;;;;;;12.75;4.43;;;15.40;93.90;;;;;;4999354;28;20296;-37
2023/05/30 08:51:48;;;;;;;14.07;5.82;;;15.50;93.80;;;;;;4991508;28;20698;-37
2023/05/30 08:54:24;;;;;;;10.02;4.55;;;15.50;93.90;;;;;;4995669;28;20292;-37
2023/05/30 08:57:02;;;;;;;11.23;4.95;;;15.60;93.90;;;;;;4996986;28;20237;-37
2023/05/30 08:59:30;;;;;;;12.35;5.03;;;15.70;93.90;;;;;;4988667;28;20263;-37
2023/05/30 09:02:01;;;;;;;12.45;4.95;;;15.70;93.90;;;;;;4987660;28;20222;-37
2023/05/30 09:04:30;;;;;;;13.75;5.38;;;15.80;93.80;;;;;;4981327;28;20329;-37
2023/05/30 09:07:02;;;;;;;15.25;6.32;;;15.90;93.90;;;;;;4991986;28;20758;-37
2023/05/30 09:09:33;;;;;;;18.55;5.88;;;15.90;94.10;;;;;;4965826;28;20225;-38
2023/05/30 09:12:02;;;;;;;14.00;5.20;;;15.90;94.10;;;;;;4993300;28;20258;-38
2023/05/30 09:14:33;;;;;;;12.90;5.65;;;15.90;94.00;;;;;;4988936;28;20206;-37
2023/05/30 09:17:00;;;;;;;15.40;5.68;;;16.00;94.00;;;;;;4989098;28;21452;-38
2023/05/30 09:19:28;;;;;;;12.45;5.30;;;16.00;93.90;;;;;;4987752;28;20633;-37
2023/05/30 09:21:58;;;;;;;11.27;5.00;;;16.00;93.90;;;;;;4999523;28;20213;-33
2023/05/30 09:24:59;;;;;;;8.80;4.75;;;16.10;93.80;;;;;;4992904;28;20244;-38
2023/05/30 09:27:33;;;;;;;18.27;5.97;;;16.10;93.80;;;;;;4995485;28;20210;-37
2023/05/30 09:30:13;;;;;;;12.18;5.40;;;16.20;93.70;;;;;;4995420;28;20218;-41
2023/05/30 09:32:42;;;;;;;22.10;5.97;;;16.20;93.80;;;;;;4988675;28;20211;-38
2023/05/30 09:35:10;;;;;;;13.02;5.43;;;16.10;93.80;;;;;;4984864;28;20197;-38
2023/05/30 09:37:43;;;;;;;12.85;5.43;;;16.20;93.70;;;;;;4998381;28;20332;-38
2023/05/30 09:40:17;;;;;;;13.98;6.53;;;16.30;93.80;;;;;;4988396;28;20198;-38
2023/05/30 09:42:49;;;;;;;11.90;6.05;;;16.40;93.80;;;;;;4997180;28;20293;-35
2023/05/30 09:45:22;;;;;;;13.40;6.53;;;16.40;93.80;;;;;;4990186;28;20964;-35
2023/05/30 09:47:55;;;;;;;19.23;6.80;;;16.40;93.80;;;;;;4990176;28;21029;-35
2023/05/30 09:50:24;;;;;;;16.58;6.15;;;16.40;93.70;;;;;;4988900;28;20198;-38
2023/05/30 09:52:56;;;;;;;11.70;5.65;;;16.40;93.80;;;;;;4995359;28;20225;-38
2023/05/30 09:55:25;;;;;;;14.23;6.70;;;16.50;93.80;;;;;;4989142;28;20217;-36
2023/05/30 09:57:53;;;;;;;13.10;6.28;;;16.50;93.90;;;;;;4999652;28;20253;-37
2023/05/30 10:00:29;;;;;;;11.60;6.20;;;16.50;93.80;;;;;;5001805;28;20209;-37
2023/05/30 10:02:58;;;;;;;13.43;6.55;;;16.50;93.80;;;;;;4986311;28;20580;-38
2023/05/30 10:05:31;;;;;;;18.70;6.75;;;16.60;93.80;;;;;;4987029;28;20244;-38
2023/05/30 10:07:59;;;;;;;11.07;5.82;;;16.70;93.80;;;;;;5003870;28;20267;-33
2023/05/30 10:10:27;;;;;;;10.75;6.00;;;16.80;93.90;;;;;;5002293;28;20206;-33
2023/05/30 10:12:57;;;;;;;15.13;6.07;;;16.80;94.00;;;;;;4995275;28;20241;-33
2023/05/30 10:15:28;;;;;;;14.07;5.90;;;16.90;94.00;;;;;;4982941;28;20305;-33
2023/05/30 10:18:12;;;;;;;13.35;6.40;;;16.90;94.00;;;;;;4997227;28;20222;-33
2023/05/30 10:20:46;;;;;;;9.82;6.40;;;17.00;93.80;;;;;;4993455;28;20221;-33
2023/05/30 10:23:16;;;;;;;12.52;6.35;;;17.00;94.00;;;;;;4986891;28;20846;-33
2023/05/30 10:25:54;;;;;;;13.32;6.40;;;17.10;94.00;;;;;;4995876;28;20779;-33
2023/05/30 10:28:31;;;;;;;14.98;7.28;;;17.20;94.40;;;;;;4999400;28;20217;-33
2023/05/30 10:31:01;;;;;;;11.70;6.68;;;17.20;94.20;;;;;;4996684;28;20604;-33
2023/05/30 10:33:36;;;;;;;15.45;6.90;;;17.30;94.20;;;;;;4996569;28;20700;-33
2023/05/30 10:36:26;;;;;;;15.50;6.47;;;17.40;94.20;;;;;;4986283;28;20265;-33
2023/05/30 10:39:10;;;;;;;17.05;6.85;;;17.40;94.20;;;;;;4985957;28;20325;-33
2023/05/30 10:42:23;;;;;;;14.20;7.20;;;17.50;94.30;;;;;;4993199;28;20210;-33
2023/05/30 10:45:10;;;;;;;10.70;6.95;;;17.60;94.20;;;;;;4994583;28;20291;-33
2023/05/30 10:47:48;;;;;;;13.80;7.65;;;17.60;94.20;;;;;;4991745;28;20198;-34
2023/05/30 10:50:26;;;;;;;16.50;8.30;;;17.50;94.20;;;;;;4993481;28;20953;-33
2023/05/30 10:52:56;;;;;;;14.88;8.18;;;17.60;94.30;;;;;;4996166;28;20224;-33
2023/05/30 10:55:26;;;;;;;20.50;7.90;;;17.60;94.20;;;;;;4985776;28;20232;-33
2023/05/30 10:57:56;;;;;;;12.88;7.43;;;17.70;94.30;;;;;;4987968;28;20648;-33
2023/05/30 11:00:29;;;;;;;12.00;6.80;;;17.80;94.40;;;;;;4988081;28;20225;-33
2023/05/30 11:03:00;;;;;;;14.85;7.25;;;17.90;94.50;;;;;;4987682;28;20206;-33
2023/05/30 11:05:32;;;;;;;13.85;7.47;;;17.90;94.50;;;;;;4983968;28;20238;-33
2023/05/30 11:08:03;;;;;;;13.93;7.75;;;18.00;94.50;;;;;;4991315;28;20208;-33
2023/05/30 11:10:31;;;;;;;15.50;8.23;;;18.10;94.50;;;;;;4986036;28;20867;-33
2023/05/30 11:13:20;;;;;;;13.77;7.30;;;18.10;94.50;;;;;;4993793;28;20202;-33
2023/05/30 11:15:50;;;;;;;13.65;6.97;;;18.10;94.50;;;;;;4985507;28;20198;-34
2023/05/30 11:18:18;;;;;;;17.80;8.38;;;18.20;94.40;;;;;;5000306;28;20272;-34
2023/05/30 11:20:56;;;;;;;14.10;7.85;;;18.20;94.30;;;;;;4996334;28;20210;-34
2023/05/30 11:23:24;;;;;;;15.40;7.93;;;18.30;94.30;;;;;;4992186;28;20208;-34
2023/05/30 11:25:53;;;;;;;19.02;8.57;;;18.40;94.20;;;;;;4985441;28;20207;-34
2023/05/30 11:28:35;;;;;;;14.23;8.20;;;18.40;94.20;;;;;;4989636;28;20229;-34
2023/05/30 11:31:19;;;;;;;15.85;8.50;;;18.50;94.10;;;;;;4989201;28;20272;-34
2023/05/30 11:33:52;;;;;;;17.33;9.25;;;18.50;94.20;;;;;;4995876;28;20293;-34
2023/05/30 11:36:22;;;;;;;11.55;8.02;;;18.40;93.70;;;;;;4990940;28;20202;-34
2023/05/30 11:38:52;;;;;;;13.57;7.97;;;18.50;94.20;;;;;;4992344;28;20785;-32
2023/05/30 11:41:26;;;;;;;22.30;8.93;;;18.60;94.10;;;;;;4995082;28;20212;-33
2023/05/30 11:43:56;;;;;;;13.65;7.88;;;18.60;94.00;;;;;;4984070;28;20226;-33
2023/05/30 11:46:29;;;;;;;14.18;8.55;;;18.70;94.10;;;;;;4996036;28;20217;-33
2023/05/30 11:49:04;;;;;;;12.43;8.20;;;18.70;94.00;;;;;;5001861;28;20291;-33
2023/05/30 11:51:35;;;;;;;11.75;7.70;;;18.70;94.10;;;;;;4985225;28;20202;-33
2023/05/30 11:54:06;;;;;;;13.57;8.27;;;18.80;94.20;;;;;;4983945;28;20605;-33
2023/05/30 11:56:33;;;;;;;13.43;8.20;;;18.70;94.00;;;;;;4987706;28;20221;-33
2023/05/30 11:59:02;;;;;;;14.80;8.23;;;18.80;94.20;;;;;;4986813;28;21124;-33
2023/05/30 12:01:30;;;;;;;11.20;6.63;;;18.90;94.20;;;;;;4981569;28;20311;-33
2023/05/30 12:03:59;;;;;;;10.32;7.10;;;19.00;94.40;;;;;;4988354;28;21379;-33
2023/05/30 12:06:29;;;;;;;19.05;9.32;;;19.10;94.30;;;;;;4995134;28;20296;-33
2023/05/30 12:08:57;;;;;;;10.70;8.15;;;19.10;93.90;;;;;;4982425;28;20201;-34
2023/05/30 12:11:24;;;;;;;12.88;8.50;;;19.10;94.00;;;;;;4988886;28;20258;-34
2023/05/30 12:13:55;;;;;;;15.07;8.95;;;19.10;93.90;;;;;;4984796;28;20213;-39
2023/05/30 12:16:23;;;;;;;17.60;8.57;;;19.20;93.80;;;;;;4984962;28;20294;-38
2023/05/30 12:18:50;;;;;;;15.85;8.27;;;19.30;93.80;;;;;;4994920;28;20293;-34
2023/05/30 12:21:19;;;;;;;12.93;8.73;;;19.30;93.80;;;;;;5006288;28;20241;-34
2023/05/30 12:23:46;;;;;;;8.63;7.68;;;19.40;93.90;;;;;;4992596;28;20664;-38
2023/05/30 12:26:18;;;;;;;12.55;6.97;;;19.40;93.80;;;;;;4994633;28;20657;-40
2023/05/30 12:28:49;;;;;;;15.93;8.77;;;19.40;93.80;;;;;;4990566;28;20652;-38
2023/05/30 12:31:26;;;;;;;11.55;7.38;;;19.50;93.50;;;;;;4996331;28;20213;-38
2023/05/30 12:33:59;;;;;;;17.00;7.30;;;19.50;93.60;;;;;;4998051;28;20640;-38
2023/05/30 12:36:26;;;;;;;14.90;8.68;;;19.60;93.90;;;;;;4994688;28;20217;-38
2023/05/30 12:39:02;;;;;;;14.63;8.90;;;19.60;93.40;;;;;;4973116;28;20214;-38
2023/05/30 12:41:36;;;;;;;14.05;7.78;;;19.60;93.30;;;;;;5002504;28;20210;-34
2023/05/30 12:44:03;;;;;;;13.77;7.22;;;19.60;93.30;;;;;;4991549;28;20587;-35
2023/05/30 12:46:41;;;;;;;12.38;5.72;;;19.70;93.60;;;;;;4992441;28;20373;-32
2023/05/30 12:49:11;;;;;;;13.40;6.95;;;19.80;94.10;;;;;;5002635;28;20592;-32
2023/05/30 12:51:38;;;;;;;13.73;7.88;;;19.90;94.00;;;;;;4995320;28;20193;-32
2023/05/30 12:54:10;;;;;;;11.90;7.60;;;20.00;94.00;;;;;;5001837;28;20667;-33
2023/05/30 12:56:41;;;;;;;12.52;7.50;;;20.00;93.90;;;;;;5006139;28;20308;-33